Weather at Glasgow Seaplane Terminal [CLOSED]

Public forecast

Using degrees Celsius for public forecast. Weather courtesy of forecast.io.

Closest aviation weather report (METAR) to Glasgow Seaplane Terminal

Closest report is Glasgow International Airport, 4.7 nm (8.8 km) W.

2024/05/24 20:20 (retrieved 30 minutes ago)

EGPF 242020Z AUTO 20006KT 160V230 9999 FEW012 OVC036 12/10 Q1018

Closest aviation forecast (TAF) to Glasgow Seaplane Terminal

Closest forecast is Glasgow International Airport, 4.7 nm (8.8 km) W.

2024/05/24 18:00 (retrieved 3 hours ago)

TAF EGPF 241655Z 2418/2518 22009KT 9999 BKN030 TEMPO 2418/2508 7000 -RA BKN014 PROB30 TEMPO 2418/2504 4000 RADZ BKN007 BECMG 2503/2506 12010KT